sensor_id;sensor_type;location;lat;lon;timestamp;P1;durP1;ratioP1;P2;durP2;ratioP2
41311;SDS011;27061;41.648;24.568;2023-07-08T00:00:44;13.13;;;7.85;;
41311;SDS011;27061;41.648;24.568;2023-07-08T00:03:15;18.85;;;8.38;;
41311;SDS011;27061;41.648;24.568;2023-07-08T00:05:43;13.60;;;8.48;;
41311;SDS011;27061;41.648;24.568;2023-07-08T00:08:14;17.45;;;8.07;;
41311;SDS011;27061;41.648;24.568;2023-07-08T00:10:42;21.40;;;8.07;;
41311;SDS011;27061;41.648;24.568;2023-07-08T00:13:09;19.63;;;8.18;;
41311;SDS011;27061;41.648;24.568;2023-07-08T00:15:37;12.07;;;7.78;;
41311;SDS011;27061;41.648;24.568;2023-07-08T00:18:11;12.50;;;7.35;;
41311;SDS011;27061;41.648;24.568;2023-07-08T00:20:42;14.27;;;8.48;;
41311;SDS011;27061;41.648;24.568;2023-07-08T00:23:11;12.13;;;7.85;;
41311;SDS011;27061;41.648;24.568;2023-07-08T00:25:39;15.25;;;8.18;;
41311;SDS011;27061;41.648;24.568;2023-07-08T00:28:15;19.02;;;7.95;;
41311;SDS011;27061;41.648;24.568;2023-07-08T00:30:43;11.18;;;7.63;;
41311;SDS011;27061;41.648;24.568;2023-07-08T00:33:11;7.47;;;6.50;;
41311;SDS011;27061;41.648;24.568;2023-07-08T00:35:39;14.13;;;8.10;;
41311;SDS011;27061;41.648;24.568;2023-07-08T00:38:21;13.45;;;7.50;;
41311;SDS011;27061;41.648;24.568;2023-07-08T00:43:48;14.52;;;7.43;;
41311;SDS011;27061;41.648;24.568;2023-07-08T00:51:26;20.13;;;9.60;;
41311;SDS011;27061;41.648;24.568;2023-07-08T00:53:53;16.10;;;8.63;;
41311;SDS011;27061;41.648;24.568;2023-07-08T00:56:22;10.98;;;6.75;;
41311;SDS011;27061;41.648;24.568;2023-07-08T00:59:03;13.10;;;7.20;;
41311;SDS011;27061;41.648;24.568;2023-07-08T01:01:35;9.30;;;7.10;;
41311;SDS011;27061;41.648;24.568;2023-07-08T01:04:09;9.23;;;6.93;;
41311;SDS011;27061;41.648;24.568;2023-07-08T01:06:40;12.05;;;7.47;;
41311;SDS011;27061;41.648;24.568;2023-07-08T01:09:11;18.95;;;7.20;;
41311;SDS011;27061;41.648;24.568;2023-07-08T01:11:42;14.40;;;7.60;;
41311;SDS011;27061;41.648;24.568;2023-07-08T01:14:10;10.65;;;6.38;;
41311;SDS011;27061;41.648;24.568;2023-07-08T01:16:40;10.30;;;6.95;;
41311;SDS011;27061;41.648;24.568;2023-07-08T01:19:09;12.55;;;7.50;;
41311;SDS011;27061;41.648;24.568;2023-07-08T01:22:02;26.17;;;7.07;;
41311;SDS011;27061;41.648;24.568;2023-07-08T01:24:30;15.18;;;6.90;;
41311;SDS011;27061;41.648;24.568;2023-07-08T01:27:00;9.90;;;7.25;;
41311;SDS011;27061;41.648;24.568;2023-07-08T01:29:30;10.35;;;7.20;;
41311;SDS011;27061;41.648;24.568;2023-07-08T01:31:57;11.60;;;6.53;;
41311;SDS011;27061;41.648;24.568;2023-07-08T01:34:32;14.85;;;6.97;;
41311;SDS011;27061;41.648;24.568;2023-07-08T01:37:01;12.10;;;6.63;;
41311;SDS011;27061;41.648;24.568;2023-07-08T01:39:31;12.07;;;6.53;;
41311;SDS011;27061;41.648;24.568;2023-07-08T01:41:58;7.35;;;6.30;;
41311;SDS011;27061;41.648;24.568;2023-07-08T01:47:18;9.02;;;7.05;;
41311;SDS011;27061;41.648;24.568;2023-07-08T01:49:46;9.32;;;7.07;;
41311;SDS011;27061;41.648;24.568;2023-07-08T01:52:15;13.98;;;7.57;;
41311;SDS011;27061;41.648;24.568;2023-07-08T01:54:45;13.02;;;6.95;;
41311;SDS011;27061;41.648;24.568;2023-07-08T01:57:12;14.48;;;7.10;;
41311;SDS011;27061;41.648;24.568;2023-07-08T01:59:39;9.25;;;7.15;;
41311;SDS011;27061;41.648;24.568;2023-07-08T02:02:06;22.35;;;7.97;;
41311;SDS011;27061;41.648;24.568;2023-07-08T02:04:33;16.77;;;7.18;;
41311;SDS011;27061;41.648;24.568;2023-07-08T02:07:00;8.38;;;6.93;;
41311;SDS011;27061;41.648;24.568;2023-07-08T02:09:27;8.57;;;6.68;;
41311;SDS011;27061;41.648;24.568;2023-07-08T02:11:55;18.80;;;7.40;;
41311;SDS011;27061;41.648;24.568;2023-07-08T02:14:22;12.38;;;7.78;;
41311;SDS011;27061;41.648;24.568;2023-07-08T02:16:50;20.88;;;12.27;;
41311;SDS011;27061;41.648;24.568;2023-07-08T02:19:17;32.17;;;12.23;;
41311;SDS011;27061;41.648;24.568;2023-07-08T02:21:44;8.80;;;6.70;;
41311;SDS011;27061;41.648;24.568;2023-07-08T02:24:12;8.43;;;6.78;;
41311;SDS011;27061;41.648;24.568;2023-07-08T02:26:39;11.65;;;7.60;;
41311;SDS011;27061;41.648;24.568;2023-07-08T02:29:06;13.50;;;7.57;;
41311;SDS011;27061;41.648;24.568;2023-07-08T02:31:34;18.05;;;9.98;;
41311;SDS011;27061;41.648;24.568;2023-07-08T02:34:01;16.42;;;8.98;;
41311;SDS011;27061;41.648;24.568;2023-07-08T02:36:28;12.40;;;7.18;;
41311;SDS011;27061;41.648;24.568;2023-07-08T02:38:56;11.15;;;7.00;;
41311;SDS011;27061;41.648;24.568;2023-07-08T02:41:23;13.60;;;7.75;;
41311;SDS011;27061;41.648;24.568;2023-07-08T02:43:50;12.85;;;7.00;;
41311;SDS011;27061;41.648;24.568;2023-07-08T02:46:18;13.68;;;8.50;;
41311;SDS011;27061;41.648;24.568;2023-07-08T02:48:45;14.27;;;7.13;;
41311;SDS011;27061;41.648;24.568;2023-07-08T02:51:12;10.90;;;7.90;;
41311;SDS011;27061;41.648;24.568;2023-07-08T02:53:39;20.90;;;7.75;;
41311;SDS011;27061;41.648;24.568;2023-07-08T02:56:06;17.50;;;7.47;;
41311;SDS011;27061;41.648;24.568;2023-07-08T02:58:33;10.60;;;7.07;;
41311;SDS011;27061;41.648;24.568;2023-07-08T03:01:01;27.55;;;10.68;;
41311;SDS011;27061;41.648;24.568;2023-07-08T03:03:29;24.23;;;8.43;;
41311;SDS011;27061;41.648;24.568;2023-07-08T03:05:58;17.80;;;7.28;;
41311;SDS011;27061;41.648;24.568;2023-07-08T03:08:27;7.90;;;6.45;;
41311;SDS011;27061;41.648;24.568;2023-07-08T03:10:55;11.45;;;6.95;;
41311;SDS011;27061;41.648;24.568;2023-07-08T03:13:28;9.25;;;6.53;;
41311;SDS011;27061;41.648;24.568;2023-07-08T03:15:56;7.93;;;6.93;;
41311;SDS011;27061;41.648;24.568;2023-07-08T03:18:25;13.15;;;6.13;;
41311;SDS011;27061;41.648;24.568;2023-07-08T03:20:54;21.92;;;12.05;;
41311;SDS011;27061;41.648;24.568;2023-07-08T03:23:23;13.38;;;6.72;;
41311;SDS011;27061;41.648;24.568;2023-07-08T03:25:52;13.02;;;6.55;;
41311;SDS011;27061;41.648;24.568;2023-07-08T03:28:21;15.57;;;7.13;;
41311;SDS011;27061;41.648;24.568;2023-07-08T03:30:52;26.95;;;12.30;;
41311;SDS011;27061;41.648;24.568;2023-07-08T03:33:20;21.15;;;9.20;;
41311;SDS011;27061;41.648;24.568;2023-07-08T03:35:47;19.13;;;7.25;;
41311;SDS011;27061;41.648;24.568;2023-07-08T03:38:15;36.33;;;13.70;;
41311;SDS011;27061;41.648;24.568;2023-07-08T03:40:42;17.60;;;9.52;;
41311;SDS011;27061;41.648;24.568;2023-07-08T03:43:10;29.25;;;7.38;;
41311;SDS011;27061;41.648;24.568;2023-07-08T03:45:38;13.38;;;6.22;;
41311;SDS011;27061;41.648;24.568;2023-07-08T03:48:12;7.60;;;6.28;;
41311;SDS011;27061;41.648;24.568;2023-07-08T03:50:41;8.32;;;5.97;;
41311;SDS011;27061;41.648;24.568;2023-07-08T03:53:08;6.70;;;5.97;;
41311;SDS011;27061;41.648;24.568;2023-07-08T03:55:36;17.90;;;6.53;;
41311;SDS011;27061;41.648;24.568;2023-07-08T03:58:04;24.10;;;6.70;;
41311;SDS011;27061;41.648;24.568;2023-07-08T04:00:33;12.57;;;6.90;;
41311;SDS011;27061;41.648;24.568;2023-07-08T04:03:01;8.27;;;5.53;;
41311;SDS011;27061;41.648;24.568;2023-07-08T04:05:28;14.65;;;5.70;;
41311;SDS011;27061;41.648;24.568;2023-07-08T04:07:56;9.88;;;5.70;;
41311;SDS011;27061;41.648;24.568;2023-07-08T04:10:24;11.18;;;5.82;;
41311;SDS011;27061;41.648;24.568;2023-07-08T04:12:51;24.17;;;6.45;;
41311;SDS011;27061;41.648;24.568;2023-07-08T04:15:18;15.35;;;5.85;;
41311;SDS011;27061;41.648;24.568;2023-07-08T04:17:46;14.55;;;6.75;;
41311;SDS011;27061;41.648;24.568;2023-07-08T04:20:17;16.63;;;9.43;;
41311;SDS011;27061;41.648;24.568;2023-07-08T04:22:45;49.28;;;9.48;;
41311;SDS011;27061;41.648;24.568;2023-07-08T04:25:13;7.78;;;5.78;;
41311;SDS011;27061;41.648;24.568;2023-07-08T04:27:41;13.27;;;6.35;;
41311;SDS011;27061;41.648;24.568;2023-07-08T04:30:14;16.13;;;7.80;;
41311;SDS011;27061;41.648;24.568;2023-07-08T04:32:49;19.77;;;6.20;;
41311;SDS011;27061;41.648;24.568;2023-07-08T04:35:19;13.80;;;6.53;;
41311;SDS011;27061;41.648;24.568;2023-07-08T04:37:46;56.38;;;22.33;;
41311;SDS011;27061;41.648;24.568;2023-07-08T04:40:18;33.03;;;12.52;;
41311;SDS011;27061;41.648;24.568;2023-07-08T04:42:46;16.38;;;8.82;;
41311;SDS011;27061;41.648;24.568;2023-07-08T04:45:15;13.35;;;7.03;;
41311;SDS011;27061;41.648;24.568;2023-07-08T04:47:44;21.02;;;6.53;;
41311;SDS011;27061;41.648;24.568;2023-07-08T04:50:13;8.15;;;5.90;;
41311;SDS011;27061;41.648;24.568;2023-07-08T04:52:41;9.48;;;5.82;;
41311;SDS011;27061;41.648;24.568;2023-07-08T04:55:08;10.75;;;6.25;;
41311;SDS011;27061;41.648;24.568;2023-07-08T04:57:36;9.20;;;6.50;;
41311;SDS011;27061;41.648;24.568;2023-07-08T05:00:04;19.50;;;8.18;;
41311;SDS011;27061;41.648;24.568;2023-07-08T05:02:34;9.35;;;6.80;;
41311;SDS011;27061;41.648;24.568;2023-07-08T05:05:01;8.55;;;6.78;;
41311;SDS011;27061;41.648;24.568;2023-07-08T05:07:29;8.65;;;6.32;;
41311;SDS011;27061;41.648;24.568;2023-07-08T05:09:57;9.05;;;6.93;;
41311;SDS011;27061;41.648;24.568;2023-07-08T05:12:25;28.20;;;9.57;;
41311;SDS011;27061;41.648;24.568;2023-07-08T05:14:53;13.63;;;8.23;;
41311;SDS011;27061;41.648;24.568;2023-07-08T05:17:20;65.90;;;10.90;;
41311;SDS011;27061;41.648;24.568;2023-07-08T05:19:47;13.32;;;8.77;;
41311;SDS011;27061;41.648;24.568;2023-07-08T05:22:17;10.00;;;7.43;;
41311;SDS011;27061;41.648;24.568;2023-07-08T05:24:49;9.48;;;7.00;;
41311;SDS011;27061;41.648;24.568;2023-07-08T05:27:18;13.50;;;7.28;;
41311;SDS011;27061;41.648;24.568;2023-07-08T05:29:46;8.38;;;7.45;;
41311;SDS011;27061;41.648;24.568;2023-07-08T05:32:13;16.10;;;7.07;;
41311;SDS011;27061;41.648;24.568;2023-07-08T05:34:41;10.77;;;7.03;;
41311;SDS011;27061;41.648;24.568;2023-07-08T05:37:08;13.15;;;7.38;;
41311;SDS011;27061;41.648;24.568;2023-07-08T05:39:35;9.23;;;7.40;;
41311;SDS011;27061;41.648;24.568;2023-07-08T05:42:02;9.32;;;7.55;;
41311;SDS011;27061;41.648;24.568;2023-07-08T05:44:29;10.45;;;7.30;;
41311;SDS011;27061;41.648;24.568;2023-07-08T05:46:56;8.00;;;7.20;;
41311;SDS011;27061;41.648;24.568;2023-07-08T05:49:23;15.70;;;8.10;;
41311;SDS011;27061;41.648;24.568;2023-07-08T05:51:50;12.85;;;6.82;;
41311;SDS011;27061;41.648;24.568;2023-07-08T05:54:18;19.55;;;7.13;;
41311;SDS011;27061;41.648;24.568;2023-07-08T05:56:45;7.18;;;6.47;;
41311;SDS011;27061;41.648;24.568;2023-07-08T05:59:12;12.30;;;6.90;;
41311;SDS011;27061;41.648;24.568;2023-07-08T06:01:39;13.00;;;6.82;;
41311;SDS011;27061;41.648;24.568;2023-07-08T06:04:06;8.88;;;6.13;;
41311;SDS011;27061;41.648;24.568;2023-07-08T06:06:35;9.05;;;7.25;;
41311;SDS011;27061;41.648;24.568;2023-07-08T06:09:03;9.65;;;6.68;;
41311;SDS011;27061;41.648;24.568;2023-07-08T06:11:30;6.88;;;6.10;;
41311;SDS011;27061;41.648;24.568;2023-07-08T06:13:58;9.00;;;6.97;;
41311;SDS011;27061;41.648;24.568;2023-07-08T06:16:28;10.73;;;6.63;;
41311;SDS011;27061;41.648;24.568;2023-07-08T06:19:06;9.27;;;6.60;;
41311;SDS011;27061;41.648;24.568;2023-07-08T06:21:33;7.78;;;6.15;;
41311;SDS011;27061;41.648;24.568;2023-07-08T06:24:01;6.90;;;4.95;;
41311;SDS011;27061;41.648;24.568;2023-07-08T06:26:28;6.13;;;5.28;;
41311;SDS011;27061;41.648;24.568;2023-07-08T06:28:55;5.65;;;5.15;;
41311;SDS011;27061;41.648;24.568;2023-07-08T06:31:22;7.75;;;4.38;;
41311;SDS011;27061;41.648;24.568;2023-07-08T06:33:49;10.13;;;5.05;;
41311;SDS011;27061;41.648;24.568;2023-07-08T06:36:16;6.47;;;5.47;;
41311;SDS011;27061;41.648;24.568;2023-07-08T06:38:43;7.90;;;5.15;;
41311;SDS011;27061;41.648;24.568;2023-07-08T06:41:11;10.30;;;6.35;;
41311;SDS011;27061;41.648;24.568;2023-07-08T06:43:38;10.70;;;5.47;;
41311;SDS011;27061;41.648;24.568;2023-07-08T06:46:31;6.63;;;5.20;;
41311;SDS011;27061;41.648;24.568;2023-07-08T06:48:58;6.18;;;5.57;;
41311;SDS011;27061;41.648;24.568;2023-07-08T06:51:26;13.73;;;5.25;;
41311;SDS011;27061;41.648;24.568;2023-07-08T06:53:53;5.20;;;4.78;;
41311;SDS011;27061;41.648;24.568;2023-07-08T06:56:20;8.70;;;4.80;;
41311;SDS011;27061;41.648;24.568;2023-07-08T06:58:47;6.28;;;5.15;;
41311;SDS011;27061;41.648;24.568;2023-07-08T07:01:14;5.80;;;5.30;;
41311;SDS011;27061;41.648;24.568;2023-07-08T07:03:42;7.82;;;5.13;;
41311;SDS011;27061;41.648;24.568;2023-07-08T07:06:10;8.75;;;5.30;;
41311;SDS011;27061;41.648;24.568;2023-07-08T07:08:37;5.20;;;4.70;;
41311;SDS011;27061;41.648;24.568;2023-07-08T07:11:04;8.93;;;4.88;;
41311;SDS011;27061;41.648;24.568;2023-07-08T07:13:31;7.43;;;4.82;;
41311;SDS011;27061;41.648;24.568;2023-07-08T07:15:59;6.07;;;5.15;;
41311;SDS011;27061;41.648;24.568;2023-07-08T07:18:27;8.65;;;4.40;;
41311;SDS011;27061;41.648;24.568;2023-07-08T07:20:54;7.38;;;4.65;;
41311;SDS011;27061;41.648;24.568;2023-07-08T07:23:22;11.63;;;6.03;;
41311;SDS011;27061;41.648;24.568;2023-07-08T07:25:49;6.30;;;4.55;;
41311;SDS011;27061;41.648;24.568;2023-07-08T07:28:16;6.75;;;5.00;;
41311;SDS011;27061;41.648;24.568;2023-07-08T07:30:44;5.05;;;4.55;;
41311;SDS011;27061;41.648;24.568;2023-07-08T07:33:12;8.07;;;5.13;;
41311;SDS011;27061;41.648;24.568;2023-07-08T07:35:44;8.48;;;5.15;;
41311;SDS011;27061;41.648;24.568;2023-07-08T07:38:13;14.30;;;5.45;;
41311;SDS011;27061;41.648;24.568;2023-07-08T07:40:42;9.70;;;4.82;;
41311;SDS011;27061;41.648;24.568;2023-07-08T07:43:09;15.93;;;7.25;;
41311;SDS011;27061;41.648;24.568;2023-07-08T07:45:37;20.10;;;5.88;;
41311;SDS011;27061;41.648;24.568;2023-07-08T07:48:04;7.95;;;5.50;;
41311;SDS011;27061;41.648;24.568;2023-07-08T07:50:32;5.05;;;4.57;;
41311;SDS011;27061;41.648;24.568;2023-07-08T07:52:59;4.47;;;4.07;;
41311;SDS011;27061;41.648;24.568;2023-07-08T07:55:26;5.00;;;4.60;;
41311;SDS011;27061;41.648;24.568;2023-07-08T07:57:53;4.28;;;3.92;;
41311;SDS011;27061;41.648;24.568;2023-07-08T08:00:20;4.40;;;3.97;;
41311;SDS011;27061;41.648;24.568;2023-07-08T08:02:47;6.78;;;4.97;;
41311;SDS011;27061;41.648;24.568;2023-07-08T08:05:15;3.88;;;3.58;;
41311;SDS011;27061;41.648;24.568;2023-07-08T08:07:42;9.60;;;3.83;;
41311;SDS011;27061;41.648;24.568;2023-07-08T08:10:10;4.80;;;4.30;;
41311;SDS011;27061;41.648;24.568;2023-07-08T08:12:37;12.27;;;4.72;;
41311;SDS011;27061;41.648;24.568;2023-07-08T08:15:19;11.93;;;4.78;;
41311;SDS011;27061;41.648;24.568;2023-07-08T08:17:47;7.30;;;5.10;;
41311;SDS011;27061;41.648;24.568;2023-07-08T08:20:16;9.20;;;4.22;;
41311;SDS011;27061;41.648;24.568;2023-07-08T08:22:43;4.30;;;3.90;;
41311;SDS011;27061;41.648;24.568;2023-07-08T08:25:10;10.85;;;3.95;;
41311;SDS011;27061;41.648;24.568;2023-07-08T08:27:37;4.63;;;4.15;;
41311;SDS011;27061;41.648;24.568;2023-07-08T08:30:05;6.68;;;4.45;;
41311;SDS011;27061;41.648;24.568;2023-07-08T08:32:38;9.63;;;3.90;;
41311;SDS011;27061;41.648;24.568;2023-07-08T08:35:06;6.40;;;3.97;;
41311;SDS011;27061;41.648;24.568;2023-07-08T08:37:33;5.45;;;4.22;;
41311;SDS011;27061;41.648;24.568;2023-07-08T08:40:00;5.28;;;3.63;;
41311;SDS011;27061;41.648;24.568;2023-07-08T08:42:29;4.70;;;4.15;;
41311;SDS011;27061;41.648;24.568;2023-07-08T08:45:07;3.50;;;3.20;;
41311;SDS011;27061;41.648;24.568;2023-07-08T08:47:43;4.43;;;3.75;;
41311;SDS011;27061;41.648;24.568;2023-07-08T08:50:25;4.65;;;3.80;;
41311;SDS011;27061;41.648;24.568;2023-07-08T08:53:08;5.85;;;3.33;;
41311;SDS011;27061;41.648;24.568;2023-07-08T08:55:40;10.13;;;4.03;;
41311;SDS011;27061;41.648;24.568;2023-07-08T09:01:19;5.47;;;3.90;;
41311;SDS011;27061;41.648;24.568;2023-07-08T09:03:49;4.32;;;3.85;;
41311;SDS011;27061;41.648;24.568;2023-07-08T09:06:22;13.52;;;3.58;;
41311;SDS011;27061;41.648;24.568;2023-07-08T09:08:51;4.05;;;3.75;;
41311;SDS011;27061;41.648;24.568;2023-07-08T09:11:27;5.25;;;3.35;;
41311;SDS011;27061;41.648;24.568;2023-07-08T09:14:03;9.63;;;3.60;;
41311;SDS011;27061;41.648;24.568;2023-07-08T09:16:51;3.55;;;3.28;;
41311;SDS011;27061;41.648;24.568;2023-07-08T09:19:26;3.63;;;3.33;;
41311;SDS011;27061;41.648;24.568;2023-07-08T09:22:07;3.30;;;3.10;;
41311;SDS011;27061;41.648;24.568;2023-07-08T09:27:28;6.85;;;3.80;;
41311;SDS011;27061;41.648;24.568;2023-07-08T09:29:55;10.98;;;3.88;;
41311;SDS011;27061;41.648;24.568;2023-07-08T09:32:23;4.18;;;3.75;;
41311;SDS011;27061;41.648;24.568;2023-07-08T09:34:53;3.58;;;3.25;;
41311;SDS011;27061;41.648;24.568;2023-07-08T09:37:25;11.88;;;3.63;;
41311;SDS011;27061;41.648;24.568;2023-07-08T09:39:52;3.97;;;3.58;;
41311;SDS011;27061;41.648;24.568;2023-07-08T09:42:21;6.43;;;3.67;;
41311;SDS011;27061;41.648;24.568;2023-07-08T09:44:58;4.00;;;3.05;;
41311;SDS011;27061;41.648;24.568;2023-07-08T09:47:29;6.95;;;3.20;;
41311;SDS011;27061;41.648;24.568;2023-07-08T09:50:00;2.92;;;2.72;;
41311;SDS011;27061;41.648;24.568;2023-07-08T09:52:31;4.05;;;2.90;;
41311;SDS011;27061;41.648;24.568;2023-07-08T09:54:58;8.02;;;3.53;;
41311;SDS011;27061;41.648;24.568;2023-07-08T09:57:26;10.25;;;3.20;;
41311;SDS011;27061;41.648;24.568;2023-07-08T09:59:59;4.03;;;2.90;;
41311;SDS011;27061;41.648;24.568;2023-07-08T10:05:14;7.72;;;3.10;;
41311;SDS011;27061;41.648;24.568;2023-07-08T10:07:53;3.42;;;2.95;;
41311;SDS011;27061;41.648;24.568;2023-07-08T10:10:35;4.90;;;3.50;;
41311;SDS011;27061;41.648;24.568;2023-07-08T10:13:08;7.85;;;3.67;;
41311;SDS011;27061;41.648;24.568;2023-07-08T10:15:42;4.20;;;3.72;;
41311;SDS011;27061;41.648;24.568;2023-07-08T10:18:15;4.00;;;3.70;;
41311;SDS011;27061;41.648;24.568;2023-07-08T10:20:57;7.25;;;3.13;;
41311;SDS011;27061;41.648;24.568;2023-07-08T10:23:51;4.13;;;3.72;;
41311;SDS011;27061;41.648;24.568;2023-07-08T10:26:27;6.97;;;3.97;;
41311;SDS011;27061;41.648;24.568;2023-07-08T10:45:34;11.60;;;3.65;;
41311;SDS011;27061;41.648;24.568;2023-07-08T11:07:12;6.25;;;3.25;;
41311;SDS011;27061;41.648;24.568;2023-07-08T11:09:56;3.58;;;2.53;;
41311;SDS011;27061;41.648;24.568;2023-07-08T11:12:40;5.90;;;2.85;;
41311;SDS011;27061;41.648;24.568;2023-07-08T11:15:25;4.47;;;2.63;;
41311;SDS011;27061;41.648;24.568;2023-07-08T11:18:03;5.80;;;2.67;;
41311;SDS011;27061;41.648;24.568;2023-07-08T11:20:40;2.83;;;2.63;;
41311;SDS011;27061;41.648;24.568;2023-07-08T11:23:29;5.03;;;2.70;;
41311;SDS011;27061;41.648;24.568;2023-07-08T11:28:39;2.70;;;2.20;;
41311;SDS011;27061;41.648;24.568;2023-07-08T11:31:06;5.85;;;3.08;;
41311;SDS011;27061;41.648;24.568;2023-07-08T11:33:34;10.48;;;2.70;;
41311;SDS011;27061;41.648;24.568;2023-07-08T11:36:02;3.70;;;2.42;;
41311;SDS011;27061;41.648;24.568;2023-07-08T11:38:31;6.00;;;3.67;;
41311;SDS011;27061;41.648;24.568;2023-07-08T11:43:40;14.50;;;2.60;;
41311;SDS011;27061;41.648;24.568;2023-07-08T11:46:21;19.75;;;3.13;;
41311;SDS011;27061;41.648;24.568;2023-07-08T11:49:13;38.25;;;3.20;;
41311;SDS011;27061;41.648;24.568;2023-07-08T11:51:42;9.00;;;2.92;;
41311;SDS011;27061;41.648;24.568;2023-07-08T11:54:13;7.78;;;3.75;;
41311;SDS011;27061;41.648;24.568;2023-07-08T11:57:14;7.85;;;3.35;;
41311;SDS011;27061;41.648;24.568;2023-07-08T11:59:42;2.95;;;2.63;;
41311;SDS011;27061;41.648;24.568;2023-07-08T12:02:12;10.05;;;2.38;;
41311;SDS011;27061;41.648;24.568;2023-07-08T12:05:00;7.95;;;2.65;;
41311;SDS011;27061;41.648;24.568;2023-07-08T12:07:31;4.50;;;2.40;;
41311;SDS011;27061;41.648;24.568;2023-07-08T12:10:05;2.05;;;1.95;;
41311;SDS011;27061;41.648;24.568;2023-07-08T12:12:36;3.03;;;2.72;;
41311;SDS011;27061;41.648;24.568;2023-07-08T12:17:55;7.53;;;2.35;;
41311;SDS011;27061;41.648;24.568;2023-07-08T12:20:28;2.55;;;2.10;;
41311;SDS011;27061;41.648;24.568;2023-07-08T12:22:56;6.85;;;2.58;;
41311;SDS011;27061;41.648;24.568;2023-07-08T12:25:25;2.67;;;2.47;;
41311;SDS011;27061;41.648;24.568;2023-07-08T12:27:55;2.35;;;2.25;;
41311;SDS011;27061;41.648;24.568;2023-07-08T12:30:22;2.40;;;2.30;;
41311;SDS011;27061;41.648;24.568;2023-07-08T12:32:49;2.20;;;2.00;;
41311;SDS011;27061;41.648;24.568;2023-07-08T12:35:19;3.97;;;3.35;;
41311;SDS011;27061;41.648;24.568;2023-07-08T12:37:53;5.03;;;3.00;;
41311;SDS011;27061;41.648;24.568;2023-07-08T12:40:24;6.32;;;2.55;;
41311;SDS011;27061;41.648;24.568;2023-07-08T12:42:53;3.85;;;2.15;;
41311;SDS011;27061;41.648;24.568;2023-07-08T12:45:21;23.85;;;2.65;;
41311;SDS011;27061;41.648;24.568;2023-07-08T12:47:50;3.42;;;2.55;;
41311;SDS011;27061;41.648;24.568;2023-07-08T12:50:21;4.63;;;2.45;;
41311;SDS011;27061;41.648;24.568;2023-07-08T12:52:48;5.55;;;2.40;;
41311;SDS011;27061;41.648;24.568;2023-07-08T12:55:15;7.10;;;3.78;;
41311;SDS011;27061;41.648;24.568;2023-07-08T12:57:46;2.60;;;2.40;;
41311;SDS011;27061;41.648;24.568;2023-07-08T13:00:29;2.67;;;2.47;;
41311;SDS011;27061;41.648;24.568;2023-07-08T13:02:59;3.28;;;2.97;;
41311;SDS011;27061;41.648;24.568;2023-07-08T13:05:33;2.80;;;2.60;;
41311;SDS011;27061;41.648;24.568;2023-07-08T13:08:02;2.58;;;2.38;;
41311;SDS011;27061;41.648;24.568;2023-07-08T13:10:29;4.32;;;2.97;;
41311;SDS011;27061;41.648;24.568;2023-07-08T13:12:58;3.67;;;2.63;;
41311;SDS011;27061;41.648;24.568;2023-07-08T13:15:34;4.35;;;2.72;;
41311;SDS011;27061;41.648;24.568;2023-07-08T13:18:13;2.42;;;2.22;;
41311;SDS011;27061;41.648;24.568;2023-07-08T13:20:47;3.38;;;2.60;;
41311;SDS011;27061;41.648;24.568;2023-07-08T13:23:18;4.82;;;2.00;;
41311;SDS011;27061;41.648;24.568;2023-07-08T13:25:48;3.58;;;2.40;;
41311;SDS011;27061;41.648;24.568;2023-07-08T13:28:18;5.05;;;2.38;;
41311;SDS011;27061;41.648;24.568;2023-07-08T13:30:53;2.40;;;2.25;;
41311;SDS011;27061;41.648;24.568;2023-07-08T13:33:22;12.32;;;2.40;;
41311;SDS011;27061;41.648;24.568;2023-07-08T13:35:51;2.85;;;2.65;;
41311;SDS011;27061;41.648;24.568;2023-07-08T13:38:20;4.80;;;2.60;;
41311;SDS011;27061;41.648;24.568;2023-07-08T13:40:52;4.22;;;2.28;;
41311;SDS011;27061;41.648;24.568;2023-07-08T13:43:25;7.95;;;2.30;;
41311;SDS011;27061;41.648;24.568;2023-07-08T13:45:54;2.50;;;2.30;;
41311;SDS011;27061;41.648;24.568;2023-07-08T13:56:18;8.13;;;2.75;;
41311;SDS011;27061;41.648;24.568;2023-07-08T13:58:49;12.20;;;1.83;;
41311;SDS011;27061;41.648;24.568;2023-07-08T14:01:21;3.20;;;2.90;;
41311;SDS011;27061;41.648;24.568;2023-07-08T14:03:52;3.63;;;2.30;;
41311;SDS011;27061;41.648;24.568;2023-07-08T14:06:25;6.60;;;3.00;;
41311;SDS011;27061;41.648;24.568;2023-07-08T14:08:56;3.95;;;2.22;;
41311;SDS011;27061;41.648;24.568;2023-07-08T14:11:25;2.60;;;2.38;;
41311;SDS011;27061;41.648;24.568;2023-07-08T14:13:52;4.50;;;2.47;;
41311;SDS011;27061;41.648;24.568;2023-07-08T14:16:24;3.22;;;3.00;;
41311;SDS011;27061;41.648;24.568;2023-07-08T14:18:59;18.30;;;5.20;;
41311;SDS011;27061;41.648;24.568;2023-07-08T14:21:30;4.65;;;2.72;;
41311;SDS011;27061;41.648;24.568;2023-07-08T14:23:59;6.05;;;2.85;;
41311;SDS011;27061;41.648;24.568;2023-07-08T14:26:28;7.53;;;3.05;;
41311;SDS011;27061;41.648;24.568;2023-07-08T14:28:56;5.53;;;2.90;;
41311;SDS011;27061;41.648;24.568;2023-07-08T14:31:23;3.53;;;2.85;;
41311;SDS011;27061;41.648;24.568;2023-07-08T14:33:56;3.63;;;2.97;;
41311;SDS011;27061;41.648;24.568;2023-07-08T14:36:29;5.32;;;2.53;;
41311;SDS011;27061;41.648;24.568;2023-07-08T14:38:56;5.55;;;3.17;;
41311;SDS011;27061;41.648;24.568;2023-07-08T14:41:24;8.23;;;3.10;;
41311;SDS011;27061;41.648;24.568;2023-07-08T14:43:52;5.47;;;2.63;;
41311;SDS011;27061;41.648;24.568;2023-07-08T14:46:19;3.83;;;3.00;;
41311;SDS011;27061;41.648;24.568;2023-07-08T14:48:46;3.28;;;2.88;;
41311;SDS011;27061;41.648;24.568;2023-07-08T14:51:13;2.70;;;2.50;;
41311;SDS011;27061;41.648;24.568;2023-07-08T14:53:40;5.25;;;3.30;;
41311;SDS011;27061;41.648;24.568;2023-07-08T14:56:16;7.05;;;3.50;;
41311;SDS011;27061;41.648;24.568;2023-07-08T14:58:44;3.05;;;2.40;;
41311;SDS011;27061;41.648;24.568;2023-07-08T15:01:22;3.67;;;2.95;;
41311;SDS011;27061;41.648;24.568;2023-07-08T15:03:51;4.05;;;3.08;;
41311;SDS011;27061;41.648;24.568;2023-07-08T15:06:18;3.13;;;2.85;;
41311;SDS011;27061;41.648;24.568;2023-07-08T15:08:45;3.20;;;2.78;;
41311;SDS011;27061;41.648;24.568;2023-07-08T15:11:12;7.38;;;2.60;;
41311;SDS011;27061;41.648;24.568;2023-07-08T15:13:39;2.92;;;2.63;;
41311;SDS011;27061;41.648;24.568;2023-07-08T15:16:11;4.63;;;2.88;;
41311;SDS011;27061;41.648;24.568;2023-07-08T15:18:41;3.25;;;2.95;;
41311;SDS011;27061;41.648;24.568;2023-07-08T15:21:12;7.28;;;3.30;;
41311;SDS011;27061;41.648;24.568;2023-07-08T15:23:41;4.95;;;3.17;;
41311;SDS011;27061;41.648;24.568;2023-07-08T15:26:12;3.80;;;3.47;;
41311;SDS011;27061;41.648;24.568;2023-07-08T15:28:41;6.97;;;3.17;;
41311;SDS011;27061;41.648;24.568;2023-07-08T15:31:16;5.43;;;2.97;;
41311;SDS011;27061;41.648;24.568;2023-07-08T15:33:45;3.83;;;3.17;;
41311;SDS011;27061;41.648;24.568;2023-07-08T15:36:13;9.40;;;2.92;;
41311;SDS011;27061;41.648;24.568;2023-07-08T15:38:40;4.30;;;3.10;;
41311;SDS011;27061;41.648;24.568;2023-07-08T15:41:23;9.95;;;3.15;;
41311;SDS011;27061;41.648;24.568;2023-07-08T15:43:54;9.77;;;3.22;;
41311;SDS011;27061;41.648;24.568;2023-07-08T15:46:25;8.75;;;4.03;;
41311;SDS011;27061;41.648;24.568;2023-07-08T15:48:58;7.85;;;4.00;;
41311;SDS011;27061;41.648;24.568;2023-07-08T15:51:25;4.03;;;2.88;;
41311;SDS011;27061;41.648;24.568;2023-07-08T15:53:59;3.25;;;3.05;;
41311;SDS011;27061;41.648;24.568;2023-07-08T15:56:26;3.08;;;2.85;;